Time;durP1;ratioP1;P1;durP2;ratioP2;P2;SDS_P1;SDS_P2;PMS_P1;PMS_P2;Temp;Humidity;BMP_temperature;BMP_pressure;BME280_temperature;BME280_humidity;BME280_pressure;Samples;Min_cycle;Max_cycle;Signal;HPM_P1;HPM_P2
2022/07/20 00:00:10;;;;;;;6.55;3.78;;;;;;;26.44;35.13;101116.81;10417666;28;20469;-77
2022/07/20 00:05:12;;;;;;;4.45;3.97;;;;;;;26.40;34.78;101118.53;10399501;28;20116;-78
2022/07/20 00:15:32;;;;;;;4.25;3.75;;;;;;;26.29;34.73;101115.09;10417109;28;20041;-77
2022/07/20 00:20:32;;;;;;;3.30;3.00;;;;;;;26.06;35.49;101102.88;10415513;28;20393;-77
2022/07/20 00:25:33;;;;;;;5.05;4.25;;;;;;;25.95;35.67;101104.97;10398490;28;20116;-76
2022/07/20 00:30:33;;;;;;;5.28;4.78;;;;;;;25.75;35.83;101106.00;10414790;28;20064;-77
2022/07/20 00:35:34;;;;;;;6.10;4.78;;;;;;;25.61;35.88;101116.13;10415710;28;20052;-77
2022/07/20 00:40:34;;;;;;;24.13;4.40;;;;;;;25.45;36.02;101109.91;10399521;28;20060;-77
2022/07/20 00:45:35;;;;;;;6.30;4.28;;;;;;;25.33;36.40;101112.22;10414896;28;20049;-77
2022/07/20 00:50:35;;;;;;;4.40;4.07;;;;;;;25.32;36.70;101102.28;10414789;28;20540;-76
2022/07/20 00:55:36;;;;;;;9.68;4.78;;;;;;;25.30;36.05;101112.81;10414509;28;20061;-77
2022/07/20 01:00:36;;;;;;;4.68;4.28;;;;;;;25.19;35.91;101103.78;10397815;28;20511;-77
2022/07/20 01:05:37;;;;;;;8.57;4.70;;;;;;;25.13;36.46;101118.78;10414733;28;20120;-76
2022/07/20 01:10:37;;;;;;;5.13;4.53;;;;;;;25.08;36.62;101110.50;10415378;28;20128;-77
2022/07/20 01:15:38;;;;;;;4.93;4.35;;;;;;;25.16;38.31;101140.38;10397130;28;20025;-76
2022/07/20 01:20:39;;;;;;;7.88;5.25;;;;;;;25.22;40.06;101144.78;10397649;28;20358;-77
2022/07/20 01:25:40;;;;;;;7.90;6.32;;;;;;;25.06;44.00;101152.34;10414025;28;20036;-77
2022/07/20 01:30:40;;;;;;;7.03;6.32;;;;;;;24.85;45.73;101161.09;10397380;28;20034;-78
2022/07/20 01:35:41;;;;;;;9.55;8.02;;;;;;;24.62;46.61;101168.16;10414382;28;20461;-77
2022/07/20 01:40:42;;;;;;;15.45;10.38;;;;;;;24.27;53.01;101168.00;10414861;28;20034;-76
2022/07/20 01:45:42;;;;;;;15.07;13.18;;;;;;;23.98;57.67;101165.06;10414876;28;20037;-77
2022/07/20 01:50:43;;;;;;;14.95;13.20;;;;;;;23.72;58.85;101164.28;10414081;28;20520;-77
2022/07/20 01:55:43;;;;;;;22.90;17.83;;;;;;;23.49;64.71;101173.97;10414681;28;20366;-76
2022/07/20 02:00:43;;;;;;;21.90;17.02;;;;;;;23.39;60.61;101177.56;10414687;28;20144;-77
2022/07/20 02:05:44;;;;;;;25.33;17.48;;;;;;;23.30;56.75;101182.00;10397140;28;20168;-76
2022/07/20 02:10:44;;;;;;;34.00;18.02;;;;;;;23.20;57.36;101176.47;10397165;28;20121;-78
2022/07/20 02:21:04;;;;;;;27.92;19.15;;;;;;;23.10;62.90;101187.47;10421466;28;20037;-77
2022/07/20 02:26:05;;;;;;;30.15;21.10;;;;;;;23.05;63.69;101176.44;10420660;28;20037;-77
2022/07/20 02:31:06;;;;;;;43.13;25.33;;;;;;;23.00;67.40;101176.44;10421548;28;20094;-77
2022/07/20 02:36:07;;;;;;;43.88;24.42;;;;;;;23.01;61.58;101169.81;10420787;28;20388;-77
2022/07/20 02:41:08;;;;;;;36.00;26.55;;;;;;;22.96;68.98;101181.66;10420572;28;20037;-77
2022/07/20 02:46:08;;;;;;;28.38;22.40;;;;;;;22.92;73.63;101192.41;10418746;28;20072;-76
2022/07/20 02:51:09;;;;;;;33.65;23.60;;;;;;;22.93;72.45;101190.47;10402600;28;20033;-76
2022/07/20 02:56:09;;;;;;;36.13;24.60;;;;;;;22.90;74.48;101186.31;10418324;28;20025;-77
2022/07/20 03:01:10;;;;;;;35.85;24.88;;;;;;;22.85;73.19;101191.03;10418999;28;20057;-76
2022/07/20 03:06:10;;;;;;;38.50;22.67;;;;;;;22.77;78.58;101200.66;10419590;28;20034;-77
2022/07/20 03:11:11;;;;;;;33.65;23.52;;;;;;;22.75;79.15;101197.34;10419406;28;20060;-77
2022/07/20 03:16:11;;;;;;;42.63;25.90;;;;;;;22.70;82.40;101195.38;10418748;28;20071;-77
2022/07/20 03:21:12;;;;;;;37.72;24.92;;;;;;;22.66;80.08;101202.56;10419426;28;20033;-76
2022/07/20 03:26:12;;;;;;;37.72;24.88;;;;;;;22.61;80.54;101196.19;10418861;28;20037;-77
2022/07/20 03:31:12;;;;;;;35.25;25.38;;;;;;;22.57;81.73;101223.50;10418781;28;20128;-77
2022/07/20 03:36:13;;;;;;;39.53;25.20;;;;;;;22.61;76.69;101241.16;10418400;28;20041;-77
2022/07/20 03:41:13;;;;;;;50.25;25.60;;;;;;;22.64;82.43;101251.69;10418843;28;20041;-77
2022/07/20 03:46:17;;;;;;;42.53;26.42;;;;;;;22.76;80.85;101245.94;10418113;28;20133;-76
2022/07/20 03:51:17;;;;;;;37.60;25.23;;;;;;;22.82;83.03;101249.56;10417924;28;20099;-77
2022/07/20 03:56:18;;;;;;;43.75;26.73;;;;;;;22.93;80.57;101254.00;10418878;28;20055;-76
2022/07/20 04:01:19;;;;;;;40.35;25.85;;;;;;;23.03;78.88;101253.22;10417768;28;20046;-77
2022/07/20 04:06:19;;;;;;;37.70;24.73;;;;;;;23.07;78.99;101257.09;10417851;28;20129;-77
2022/07/20 04:11:19;;;;;;;48.35;28.05;;;;;;;23.09;78.44;101260.41;10399558;28;20073;-77
2022/07/20 04:16:20;;;;;;;32.70;23.00;;;;;;;23.15;76.49;101273.97;10417214;28;20037;-78
2022/07/20 04:21:20;;;;;;;34.97;25.63;;;;;;;23.25;76.76;101266.81;10415653;28;20453;-74
2022/07/20 04:26:21;;;;;;;38.22;22.50;;;;;;;23.41;70.71;101282.31;10416652;28;20476;-74
2022/07/20 04:31:21;;;;;;;29.95;22.92;;;;;;;23.48;73.26;101293.09;10416445;28;20520;-74
2022/07/20 04:36:23;;;;;;;24.05;18.88;;;;;;;23.55;73.09;101299.22;10416388;28;20051;-74
2022/07/20 04:41:23;;;;;;;21.33;16.40;;;;;;;23.70;68.72;101307.53;10399435;28;20036;-72
2022/07/20 04:46:24;;;;;;;19.98;15.75;;;;;;;23.79;67.71;101311.41;10415372;28;20117;-74
2022/07/20 04:51:24;;;;;;;26.42;16.42;;;;;;;23.84;66.00;101305.88;10414608;28;20461;-75
2022/07/20 04:56:25;;;;;;;27.90;16.58;;;;;;;23.74;66.28;101303.13;10416324;28;20039;-74
2022/07/20 05:01:25;;;;;;;28.48;16.27;;;;;;;23.59;67.74;101319.66;10415359;28;20053;-74
2022/07/20 05:06:26;;;;;;;27.75;14.68;;;;;;;23.50;69.88;101313.00;10397789;28;20079;-71
2022/07/20 05:11:26;;;;;;;23.33;15.25;;;;;;;23.78;70.74;101315.28;10414703;28;20033;-70
2022/07/20 05:16:27;;;;;;;18.45;13.32;;;;;;;24.17;68.06;101339.59;10414761;28;20033;-78
2022/07/20 05:21:28;;;;;;;24.13;12.23;;;;;;;24.49;67.73;101338.50;10414602;28;20084;-79
2022/07/20 05:26:28;;;;;;;14.35;12.18;;;;;;;24.77;66.52;101359.19;10416263;28;20128;-79
2022/07/20 05:31:29;;;;;;;20.80;13.25;;;;;;;25.03;65.77;101357.16;10415297;28;20117;-79
2022/07/20 05:36:29;;;;;;;19.30;12.70;;;;;;;25.11;65.52;101362.13;10415386;28;20041;-79
2022/07/20 05:41:29;;;;;;;22.98;12.73;;;;;;;25.37;63.60;101373.94;10396835;28;20117;-80
2022/07/20 05:46:30;;;;;;;17.15;11.10;;;;;;;25.89;62.19;101363.34;10399889;28;20044;-80
2022/07/20 05:51:30;;;;;;;17.58;11.50;;;;;;;26.28;61.21;101379.94;10405076;28;20084;-79
2022/07/20 05:56:31;;;;;;;20.25;10.25;;;;;;;26.59;59.92;101388.84;10422597;28;20405;-80
2022/07/20 06:01:31;;;;;;;19.35;11.32;;;;;;;26.84;58.24;101386.94;10406292;28;20065;-80
2022/07/20 06:06:31;;;;;;;14.57;10.52;;;;;;;27.25;57.20;101408.69;10422581;28;20042;-79
2022/07/20 06:11:32;;;;;;;19.42;11.48;;;;;;;27.53;55.28;101427.22;10421207;28;20042;-80
2022/07/20 06:16:33;;;;;;;18.23;10.60;;;;;;;27.79;53.56;101455.56;10421989;28;20125;-80
2022/07/20 06:21:33;;;;;;;17.10;10.00;;;;;;;26.74;56.52;101473.16;10421928;28;20249;-80
2022/07/20 06:26:33;;;;;;;19.63;10.93;;;;;;;25.80;61.79;101523.19;10419601;28;20069;-79
2022/07/20 06:31:34;;;;;;;21.63;10.77;;;;;;;25.65;62.61;101524.91;10404382;28;20726;-80
2022/07/20 06:36:34;;;;;;;15.40;9.70;;;;;;;25.69;62.69;101534.34;10404891;28;20041;-80
2022/07/20 06:41:35;;;;;;;18.60;10.90;;;;;;;25.68;63.62;101541.00;10420724;28;20358;-79
2022/07/20 06:46:36;;;;;;;20.02;9.95;;;;;;;26.06;62.03;101565.56;10420187;28;20037;-80
2022/07/20 06:51:36;;;;;;;20.55;10.25;;;;;;;26.69;60.66;101559.34;10403609;28;20072;-79
2022/07/20 06:56:37;;;;;;;29.55;10.48;;;;;;;27.15;58.65;101559.78;10418930;28;20374;-79
2022/07/20 07:01:37;;;;;;;10.77;8.68;;;;;;;27.58;57.30;101587.72;10402364;28;20049;-80
2022/07/20 07:06:37;;;;;;;14.43;8.38;;;;;;;28.10;55.53;101587.94;10420876;28;20037;-80
2022/07/20 07:11:38;;;;;;;23.88;9.85;;;;;;;28.01;55.11;101584.97;10402298;28;20449;-80
2022/07/20 07:16:38;;;;;;;9.27;8.47;;;;;;;28.13;54.99;101585.38;10418745;28;20045;-79
2022/07/20 07:21:38;;;;;;;9.40;8.33;;;;;;;27.85;54.38;101575.16;10419772;28;20370;-80
2022/07/20 07:26:39;;;;;;;11.63;8.60;;;;;;;27.97;54.10;101583.91;10418985;28;20286;-81
2022/07/20 07:31:39;;;;;;;13.93;10.38;;;;;;;29.00;51.15;101589.63;10400539;28;20569;-80
2022/07/20 07:36:39;;;;;;;26.00;10.15;;;;;;;29.02;49.66;101578.22;10418790;28;20041;-79
2022/07/20 07:41:40;;;;;;;16.70;8.23;;;;;;;29.69;47.17;101583.38;10417698;28;20503;-80
2022/07/20 07:46:40;;;;;;;11.73;9.63;;;;;;;30.07;45.53;101572.81;10419613;28;20061;-81
2022/07/20 07:51:41;;;;;;;12.87;7.60;;;;;;;30.56;45.53;101585.91;10418426;28;20258;-80
2022/07/20 07:56:41;;;;;;;8.23;7.38;;;;;;;30.80;43.30;101601.63;10419335;28;20358;-81
2022/07/20 08:01:45;;;;;;;15.20;7.43;;;;;;;30.36;41.22;101600.38;10400374;28;20107;-81
2022/07/20 08:06:47;;;;;;;12.20;6.10;;;;;;;30.19;41.74;101603.00;10416431;28;20049;-81
2022/07/20 08:11:48;;;;;;;8.68;5.82;;;;;;;30.79;39.03;101592.41;10418065;28;20026;-81
2022/07/20 08:16:48;;;;;;;21.90;6.85;;;;;;;30.43;40.33;101575.63;10417830;28;20041;-81
2022/07/20 08:21:48;;;;;;;8.10;5.20;;;;;;;29.01;42.72;101588.53;10417228;28;20401;-81
2022/07/20 08:26:49;;;;;;;11.83;6.53;;;;;;;28.57;44.87;101581.41;10416415;28;20274;-79
2022/07/20 08:31:49;;;;;;;23.05;5.78;;;;;;;28.77;45.20;101585.81;10417776;28;20271;-80
2022/07/20 08:36:50;;;;;;;22.90;6.72;;;;;;;28.19;46.93;101575.00;10415611;28;20033;-80
2022/07/20 08:41:50;;;;;;;12.05;5.40;;;;;;;27.11;49.97;101581.75;10398511;28;20080;-80
2022/07/20 08:46:50;;;;;;;8.15;4.75;;;;;;;26.49;51.33;101585.34;10415611;28;20067;-80
2022/07/20 08:51:51;;;;;;;9.27;5.40;;;;;;;26.08;53.35;101594.69;10423022;28;20108;-81
2022/07/20 08:56:51;;;;;;;8.87;5.47;;;;;;;26.03;53.92;101613.31;10416928;28;20029;-79
2022/07/20 09:02:05;;;;;;;16.87;7.00;;;;;;;26.18;53.60;101528.00;10398389;28;20294;-80
2022/07/20 09:07:05;;;;;;;9.45;7.15;;;;;;;26.99;51.94;101449.84;10397513;28;20258;-80
2022/07/20 09:12:06;;;;;;;11.57;4.65;;;;;;;27.31;51.45;101438.94;10415258;28;20029;-80
2022/07/20 09:17:20;;;;;;;10.32;7.07;;;;;;;28.34;49.48;101602.63;10415129;28;20034;-80
2022/07/20 09:22:50;;;;;;;8.25;5.85;;;;;;;29.97;45.50;101598.97;10420759;28;20054;-80
2022/07/20 09:27:50;;;;;;;12.48;8.07;;;;;;;30.30;43.35;101627.63;10410861;28;20042;-80
2022/07/20 09:33:03;;;;;;;10.67;7.53;;;;;;;30.95;44.02;101614.38;10423499;28;20403;-80
2022/07/20 09:38:08;;;;;;;13.18;8.45;;;;;;;29.86;45.19;101631.84;10422914;28;20278;-80
2022/07/20 09:43:35;;;;;;;8.38;6.90;;;;;;;30.35;44.76;101635.88;10422724;28;20124;-80
2022/07/20 09:48:46;;;;;;;12.07;5.88;;;;;;;29.17;46.62;101673.59;10408686;28;20041;-79
2022/07/20 09:53:48;;;;;;;6.07;3.90;;;;;;;27.67;48.66;101691.69;10404390;28;20091;-80
2022/07/20 09:58:50;;;;;;;18.90;5.88;;;;;;;26.85;50.68;101705.38;10422501;28;20159;-82
2022/07/20 10:03:52;;;;;;;6.28;4.53;;;;;;;25.31;55.02;101668.09;10435723;28;20393;-81
2022/07/20 10:08:52;;;;;;;6.47;4.40;;;;;;;24.69;60.95;101734.47;10428118;28;20492;-82
2022/07/20 10:13:54;;;;;;;6.07;4.60;;;;;;;25.43;60.63;101733.25;10421809;28;20116;-83
2022/07/20 10:18:56;;;;;;;20.52;6.40;;;;;;;25.50;65.05;101716.34;10421059;28;20091;-83
2022/07/20 10:24:29;;;;;;;13.52;6.55;;;;;;;25.12;71.93;101729.63;10420369;28;20071;-82
2022/07/20 10:29:30;;;;;;;15.13;5.93;;;;;;;26.12;71.44;101715.13;10421016;28;20363;-83
2022/07/20 10:34:41;;;;;;;16.98;6.75;;;;;;;26.35;68.31;101743.38;10420644;28;20525;-80
2022/07/20 10:39:44;;;;;;;9.55;6.72;;;;;;;26.05;68.26;101739.59;10438190;28;20025;-80
2022/07/20 10:44:44;;;;;;;14.70;6.95;;;;;;;27.23;68.04;101714.03;10420991;28;20041;-80
2022/07/20 10:50:02;;;;;;;11.33;7.50;;;;;;;26.48;67.44;101751.13;10421171;28;20044;-81
2022/07/20 10:55:03;;;;;;;12.13;7.90;;;;;;;25.14;69.73;101751.50;10424669;28;20254;-80
2022/07/20 11:00:04;;;;;;;12.57;7.05;;;;;;;24.36;72.67;101694.19;10422810;28;20076;-81
2022/07/20 11:05:05;;;;;;;24.08;8.75;;;;;;;23.60;71.90;101629.03;10422468;28;20053;-82
2022/07/20 11:10:20;;;;;;;9.27;6.07;;;;;;;23.01;76.77;101648.50;10424013;28;20030;-81
2022/07/20 11:15:21;;;;;;;12.38;6.30;;;;;;;22.87;76.36;101619.59;10404061;28;20561;-80
2022/07/20 11:20:21;;;;;;;10.43;7.80;;;;;;;23.14;75.52;101664.63;10420726;28;20164;-80
2022/07/20 11:25:21;;;;;;;14.35;7.60;;;;;;;23.57;75.05;101679.31;10427795;28;20033;-79
2022/07/20 11:30:34;;;;;;;11.60;6.88;;;;;;;24.30;76.60;101682.25;10427635;28;20091;-80
2022/07/20 11:35:34;;;;;;;10.38;7.43;;;;;;;27.06;70.50;101684.66;10427711;28;20545;-80
2022/07/20 11:40:34;;;;;;;17.40;8.98;;;;;;;28.41;68.84;101705.38;10405404;28;20048;-81
2022/07/20 11:45:35;;;;;;;11.13;7.97;;;;;;;29.69;63.81;101715.41;10430181;28;20026;-81
2022/07/20 11:50:35;;;;;;;11.88;6.68;;;;;;;29.05;60.02;101720.63;10429492;28;20282;-81
2022/07/20 11:55:36;;;;;;;16.35;6.88;;;;;;;28.18;63.26;101701.44;10431152;28;20034;-80
2022/07/20 12:00:37;;;;;;;9.77;7.82;;;;;;;28.18;63.89;101754.38;10432716;28;20060;-81
2022/07/20 12:05:38;;;;;;;8.25;7.35;;;;;;;28.06;61.77;101760.34;10430844;28;20040;-81
2022/07/20 12:10:41;;;;;;;11.82;6.63;;;;;;;28.41;59.65;101761.09;10432507;28;20042;-80
2022/07/20 12:15:51;;;;;;;12.82;6.82;;;;;;;27.47;58.59;101753.06;10426497;28;20029;-81
2022/07/20 12:20:58;;;;;;;11.50;6.93;;;;;;;27.18;60.69;101753.81;10426309;28;20033;-81
2022/07/20 12:25:59;;;;;;;15.10;6.93;;;;;;;26.89;61.17;101734.25;10427381;28;20029;-80
2022/07/20 12:31:13;;;;;;;14.18;6.20;;;;;;;27.15;60.99;101743.28;10409500;28;20029;-80
2022/07/20 12:36:13;;;;;;;11.43;6.38;;;;;;;27.27;60.83;101779.09;10423018;28;20078;-79
2022/07/20 12:41:14;;;;;;;6.55;5.95;;;;;;;28.32;58.88;101790.69;10422220;28;20048;-81
2022/07/20 12:46:14;;;;;;;8.48;5.43;;;;;;;29.37;54.55;101800.75;10420985;28;20041;-80
2022/07/20 12:51:15;;;;;;;7.63;5.00;;;;;;;30.01;52.59;101789.09;10419743;28;20072;-81
2022/07/20 12:56:15;;;;;;;11.57;5.20;;;;;;;30.02;50.47;101765.63;10420252;28;20049;-81
2022/07/20 13:01:17;;;;;;;4.40;4.03;;;;;;;30.89;49.51;101747.94;10419700;28;20053;-81
2022/07/20 13:06:18;;;;;;;12.00;4.15;;;;;;;31.54;46.04;101743.84;10422415;28;20046;-80
2022/07/20 13:11:19;;;;;;;11.32;5.25;;;;;;;31.84;47.65;101758.19;10421638;28;20048;-80
2022/07/20 13:16:20;;;;;;;6.82;5.05;;;;;;;31.72;47.00;101733.59;10420622;28;20369;-81
2022/07/20 13:21:22;;;;;;;7.43;5.25;;;;;;;31.33;45.96;101720.28;10400826;28;20037;-80
2022/07/20 13:26:22;;;;;;;7.75;5.65;;;;;;;31.46;48.36;101722.22;10419446;28;20517;-81
2022/07/20 13:31:22;;;;;;;5.30;4.82;;;;;;;32.09;48.05;101717.47;10419099;28;20120;-81
2022/07/20 13:36:23;;;;;;;7.30;5.13;;;;;;;32.35;47.34;101714.75;10417125;28;20377;-80
2022/07/20 13:41:24;;;;;;;10.52;5.60;;;;;;;32.10;45.37;101739.59;10401182;28;20275;-81
2022/07/20 13:46:24;;;;;;;9.35;5.47;;;;;;;32.02;47.66;101733.94;10419031;28;20469;-81
2022/07/20 13:51:24;;;;;;;11.00;7.17;;;;;;;32.33;45.49;101736.69;10416850;28;20037;-81
2022/07/20 13:56:30;;;;;;;7.70;4.53;;;;;;;31.27;47.51;101744.78;10414280;28;20309;-81
2022/07/20 14:01:30;;;;;;;6.68;5.55;;;;;;;29.59;48.73;101757.44;10416268;28;20299;-81
2022/07/20 14:06:32;;;;;;;8.40;4.97;;;;;;;29.01;50.32;101753.06;10415899;28;20052;-81
2022/07/20 14:11:33;;;;;;;11.40;7.40;;;;;;;29.35;50.61;101763.13;10423192;28;20276;-79
2022/07/20 14:16:33;;;;;;;7.55;6.95;;;;;;;27.82;52.79;101760.28;10422633;28;20177;-80
2022/07/20 14:21:35;;;;;;;11.40;7.35;;;;;;;27.40;54.54;101774.81;10420311;28;20029;-79
2022/07/20 14:26:37;;;;;;;9.93;8.50;;;;;;;27.30;54.61;101779.34;10421570;28;20417;-80
2022/07/20 14:31:37;;;;;;;12.82;8.00;;;;;;;26.64;57.12;101785.22;10422065;28;20041;-79
2022/07/20 14:36:37;;;;;;;19.00;8.93;;;;;;;26.37;57.77;101755.03;10403687;28;20469;-79
2022/07/20 14:41:38;;;;;;;14.05;9.32;;;;;;;26.67;56.16;101735.50;10402965;28;20283;-80
2022/07/20 14:46:38;;;;;;;13.60;8.40;;;;;;;27.08;56.75;101703.84;10420148;28;20037;-79
2022/07/20 14:51:39;;;;;;;10.35;9.23;;;;;;;28.15;56.37;101694.50;10402632;28;20412;-79
2022/07/20 14:56:39;;;;;;;7.57;6.85;;;;;;;27.86;55.79;101708.50;10419454;28;20527;-80
2022/07/20 15:01:40;;;;;;;10.07;8.00;;;;;;;28.30;55.93;101721.31;10420683;28;20049;-80
2022/07/20 15:06:40;;;;;;;9.07;8.23;;;;;;;28.11;55.25;101726.00;10419457;28;20037;-80
2022/07/20 15:11:40;;;;;;;15.07;9.77;;;;;;;28.13;55.67;101729.34;10419158;28;20037;-80
2022/07/20 15:16:41;;;;;;;12.90;10.75;;;;;;;28.04;54.86;101738.34;10401823;28;20287;-79
2022/07/20 15:21:42;;;;;;;18.92;10.50;;;;;;;28.52;54.47;101716.06;10418499;28;20061;-80
2022/07/20 15:26:43;;;;;;;19.60;11.75;;;;;;;28.09;54.67;101709.63;10418167;28;20033;-80
2022/07/20 15:31:44;;;;;;;15.77;12.13;;;;;;;27.69;56.15;101717.22;10400647;28;20469;-80
2022/07/20 15:36:44;;;;;;;27.37;11.97;;;;;;;27.79;57.17;101722.75;10418478;28;20052;-80
2022/07/20 15:41:48;;;;;;;14.77;13.23;;;;;;;27.59;56.95;101723.72;10419137;28;20289;-80
2022/07/20 15:46:49;;;;;;;17.42;10.80;;;;;;;27.53;57.94;101722.13;10400047;28;20262;-80
2022/07/20 15:51:49;;;;;;;15.70;12.00;;;;;;;27.71;56.11;101723.34;10419231;28;20469;-79
2022/07/20 16:02:09;;;;;;;19.58;11.05;;;;;;;27.29;57.05;101715.66;10418055;28;20057;-79
2022/07/20 16:07:10;;;;;;;15.38;10.75;;;;;;;26.85;58.54;101711.78;10417394;28;20041;-80
2022/07/20 16:12:10;;;;;;;15.20;12.10;;;;;;;27.36;57.21;101699.47;10400261;28;20132;-78
2022/07/20 16:17:11;;;;;;;11.90;9.90;;;;;;;27.28;56.20;101703.72;10399730;28;20124;-79
2022/07/20 16:22:12;;;;;;;12.57;10.50;;;;;;;26.88;58.04;101713.16;10418297;28;20022;-79
2022/07/20 16:27:12;;;;;;;19.13;10.70;;;;;;;26.33;57.84;101685.34;10418196;28;20485;-79
2022/07/20 16:32:14;;;;;;;11.73;9.50;;;;;;;26.34;58.50;101691.75;10415769;28;20376;-80
2022/07/20 16:37:14;;;;;;;10.98;9.82;;;;;;;25.84;59.09;101676.91;10399838;28;20111;-79
2022/07/20 16:42:14;;;;;;;10.88;8.55;;;;;;;26.10;58.08;101686.84;10417338;28;20095;-79
2022/07/20 16:47:15;;;;;;;21.63;11.40;;;;;;;26.32;57.63;101682.84;10398523;28;20049;-79
2022/07/20 16:52:15;;;;;;;11.82;9.70;;;;;;;26.30;58.93;101680.38;10416436;28;20290;-80
2022/07/20 16:57:16;;;;;;;17.43;11.30;;;;;;;26.33;57.44;101668.69;10414564;28;20063;-80
2022/07/20 17:02:16;;;;;;;16.40;10.48;;;;;;;26.02;59.86;101679.09;10397975;28;20389;-80
2022/07/20 17:07:16;;;;;;;19.27;12.25;;;;;;;25.76;58.54;101686.63;10416288;28;20147;-79
2022/07/20 17:12:17;;;;;;;17.08;10.55;;;;;;;25.77;59.17;101682.72;10417188;28;20434;-79
2022/07/20 17:17:18;;;;;;;15.48;11.63;;;;;;;25.85;59.00;101660.00;10415420;28;20042;-79
2022/07/20 17:22:18;;;;;;;13.95;9.35;;;;;;;25.85;60.50;101681.38;10413884;28;20090;-79
2022/07/20 17:27:18;;;;;;;20.40;11.23;;;;;;;25.89;59.64;101663.03;10415021;28;20045;-79
2022/07/20 17:32:19;;;;;;;16.08;10.82;;;;;;;26.07;59.58;101664.34;10415839;28;20124;-79
2022/07/20 17:37:19;;;;;;;17.67;11.83;;;;;;;25.86;58.71;101650.56;10414801;28;20045;-79
2022/07/20 17:42:19;;;;;;;16.08;11.15;;;;;;;25.54;60.19;101675.84;10416415;28;20275;-79
2022/07/20 17:47:20;;;;;;;13.57;11.35;;;;;;;25.46;61.26;101677.25;10421437;28;20056;-79
2022/07/20 17:52:21;;;;;;;16.73;11.70;;;;;;;25.49;63.18;101676.69;10422641;28;20040;-79
2022/07/20 17:57:22;;;;;;;17.40;13.73;;;;;;;25.19;63.06;101665.59;10421725;28;20037;-79
2022/07/20 18:02:22;;;;;;;21.70;14.57;;;;;;;25.17;60.10;101660.31;10421758;28;20053;-79
2022/07/20 18:07:23;;;;;;;25.80;13.77;;;;;;;25.08;60.52;101655.59;10421868;28;20291;-78
2022/07/20 18:12:23;;;;;;;14.65;12.48;;;;;;;25.01;60.46;101681.63;10421547;28;20499;-79
2022/07/20 18:17:26;;;;;;;26.58;14.07;;;;;;;24.89;63.17;101694.06;10404064;28;20052;-78
2022/07/20 18:22:27;;;;;;;14.38;12.85;;;;;;;24.63;67.05;101690.41;10421273;28;20116;-79
2022/07/20 18:27:27;;;;;;;17.17;12.88;;;;;;;24.44;67.88;101692.84;10421287;28;20045;-79
2022/07/20 18:32:28;;;;;;;17.77;13.37;;;;;;;24.46;65.57;101680.41;10420962;28;20041;-79
2022/07/20 18:37:28;;;;;;;15.43;11.33;;;;;;;24.55;62.85;101666.88;10421118;28;20719;-74
2022/07/20 18:42:28;;;;;;;26.15;15.35;;;;;;;24.50;66.99;101681.53;10420548;28;20694;-76
2022/07/20 18:47:29;;;;;;;17.98;12.32;;;;;;;24.58;64.84;101694.03;10420864;28;20037;-74
2022/07/20 18:52:31;;;;;;;18.63;13.85;;;;;;;24.52;65.96;101714.50;10401420;28;20037;-74
2022/07/20 18:57:33;;;;;;;25.30;14.02;;;;;;;24.53;66.91;101730.00;10419074;28;20131;-75
2022/07/20 19:02:33;;;;;;;21.40;13.88;;;;;;;24.49;66.79;101726.09;10419406;28;20050;-75
2022/07/20 19:07:34;;;;;;;22.35;13.80;;;;;;;24.44;65.63;101735.25;10420191;28;20072;-75
2022/07/20 19:12:34;;;;;;;16.45;13.35;;;;;;;24.32;67.10;101717.97;10419894;28;20064;-74
2022/07/20 19:17:35;;;;;;;16.55;12.80;;;;;;;24.08;68.78;101721.16;10419395;28;20033;-74
2022/07/20 19:22:36;;;;;;;14.38;12.90;;;;;;;24.01;69.73;101697.63;10419256;28;20071;-73
2022/07/20 19:27:38;;;;;;;17.92;13.82;;;;;;;23.97;70.33;101704.81;10419082;28;20037;-73
2022/07/20 19:32:39;;;;;;;19.30;14.68;;;;;;;23.88;69.46;101680.41;10419603;28;20125;-74
2022/07/20 19:37:39;;;;;;;16.35;12.50;;;;;;;23.80;69.86;101683.69;10419351;28;20150;-74
2022/07/20 19:42:40;;;;;;;13.55;12.23;;;;;;;23.64;70.30;101679.09;10400995;28;20035;-73
2022/07/20 19:47:41;;;;;;;22.88;13.65;;;;;;;23.42;73.38;101681.97;10400993;28;20033;-75
2022/07/20 19:52:41;;;;;;;14.85;12.30;;;;;;;23.27;73.02;101674.41;10417769;28;20033;-74
2022/07/20 19:57:42;;;;;;;16.67;12.98;;;;;;;23.08;77.85;101675.91;10399940;28;20037;-73
2022/07/20 20:02:42;;;;;;;17.63;13.05;;;;;;;23.02;74.70;101694.34;10417930;28;20045;-74
2022/07/20 20:07:42;;;;;;;18.50;13.80;;;;;;;22.88;79.02;101688.41;10416642;28;20485;-75
2022/07/20 20:12:43;;;;;;;17.63;14.88;;;;;;;22.86;75.17;101685.06;10417275;28;20034;-73
2022/07/20 20:17:43;;;;;;;18.52;16.48;;;;;;;22.69;78.13;101689.84;10399393;28;20414;-75
2022/07/20 20:22:44;;;;;;;22.35;16.60;;;;;;;22.56;77.77;101696.63;10417310;28;20505;-74
2022/07/20 20:27:44;;;;;;;15.45;13.95;;;;;;;22.58;80.91;101696.34;10383799;28;20046;-75
2022/07/20 20:32:45;;;;;;;24.00;14.18;;;;;;;22.52;78.82;101693.50;10416457;28;20120;-75
2022/07/20 20:37:45;;;;;;;18.08;13.85;;;;;;;22.39;76.98;101706.88;10416834;28;20060;-75
2022/07/20 20:42:45;;;;;;;12.82;9.30;;;;;;;22.35;78.79;101690.00;10415682;28;20076;-76
2022/07/20 20:47:46;;;;;;;12.02;8.85;;;;;;;22.38;77.33;101695.00;10414990;28;20041;-75
2022/07/20 20:52:47;;;;;;;22.15;10.77;;;;;;;22.23;79.62;101687.38;10398975;28;20099;-76
2022/07/20 20:57:47;;;;;;;20.05;9.15;;;;;;;22.10;80.30;101693.25;10398819;28;20032;-76
2022/07/20 21:02:48;;;;;;;17.15;8.98;;;;;;;21.97;77.24;101705.47;10415907;28;20092;-74
2022/07/20 21:07:49;;;;;;;14.68;10.13;;;;;;;21.91;79.08;101705.66;10397400;28;20424;-76
2022/07/20 21:12:49;;;;;;;13.90;7.75;;;;;;;21.78;80.59;101724.22;10399016;28;20038;-75
2022/07/20 21:17:50;;;;;;;12.20;8.35;;;;;;;21.73;77.88;101745.34;10420017;28;20037;-76
2022/07/20 21:22:50;;;;;;;13.43;7.78;;;;;;;21.65;78.15;101732.84;10423294;28;20045;-75
2022/07/20 21:27:51;;;;;;;11.55;7.22;;;;;;;21.62;76.03;101733.34;10423839;28;20038;-75
2022/07/20 21:32:51;;;;;;;12.80;8.15;;;;;;;21.61;78.33;101739.13;10423572;28;20038;-75
2022/07/20 21:37:51;;;;;;;19.48;8.40;;;;;;;21.51;82.25;101746.13;10423891;28;20037;-76
2022/07/20 21:42:53;;;;;;;17.45;9.13;;;;;;;21.46;82.39;101732.25;10421469;28;20037;-75
2022/07/20 21:47:54;;;;;;;9.13;8.15;;;;;;;21.40;82.71;101737.94;10424195;28;20488;-76
2022/07/20 21:52:56;;;;;;;15.57;11.10;;;;;;;21.33;83.09;101727.88;10422872;28;20464;-76
2022/07/20 21:57:56;;;;;;;13.25;10.57;;;;;;;21.27;85.71;101731.63;10405004;28;20039;-77
2022/07/20 22:02:57;;;;;;;14.15;9.07;;;;;;;21.29;81.43;101740.47;10423980;28;20597;-79
2022/07/20 22:07:57;;;;;;;12.10;10.15;;;;;;;21.10;87.08;101739.88;10422571;28;20033;-78
2022/07/20 22:12:57;;;;;;;12.00;9.82;;;;;;;21.10;81.66;101731.59;10422285;28;20485;-78
2022/07/20 22:17:58;;;;;;;14.20;11.38;;;;;;;21.03;84.97;101747.47;10421430;28;20033;-78
2022/07/20 22:22:58;;;;;;;10.60;9.57;;;;;;;21.04;81.34;101740.03;10420560;28;20033;-78
2022/07/20 22:27:59;;;;;;;18.73;11.95;;;;;;;21.01;80.59;101740.53;10421071;28;20422;-77
2022/07/20 22:32:59;;;;;;;12.83;10.30;;;;;;;21.02;81.83;101745.75;10421842;28;20045;-78
2022/07/20 22:37:59;;;;;;;13.18;10.95;;;;;;;20.95;83.13;101742.34;10422399;28;20271;-78
2022/07/20 22:43:00;;;;;;;13.85;10.70;;;;;;;20.94;83.49;101740.66;10420969;28;20096;-77
2022/07/20 22:48:04;;;;;;;16.13;11.13;;;;;;;20.92;80.40;101751.09;10420864;28;20096;-78
2022/07/20 22:53:04;;;;;;;11.52;10.32;;;;;;;20.83;83.39;101749.81;10421867;28;20040;-78
2022/07/20 22:58:05;;;;;;;11.30;10.30;;;;;;;20.75;83.12;101747.47;10435828;28;20064;-79